sensor_id;sensor_type;location;lat;lon;timestamp;P1;durP1;ratioP1;P2;durP2;ratioP2
27706;SDS011;36332;51.384;0.040;2023-03-14T00:00:21;53.83;;;9.65;;
27706;SDS011;36332;51.384;0.040;2023-03-14T00:02:52;56.25;;;7.22;;
27706;SDS011;36332;51.384;0.040;2023-03-14T00:05:20;54.03;;;7.00;;
27706;SDS011;36332;51.384;0.040;2023-03-14T00:07:48;52.20;;;8.38;;
27706;SDS011;36332;51.384;0.040;2023-03-14T00:10:16;59.03;;;9.18;;
27706;SDS011;36332;51.384;0.040;2023-03-14T00:12:44;48.00;;;7.30;;
27706;SDS011;36332;51.384;0.040;2023-03-14T00:15:12;52.88;;;7.85;;
27706;SDS011;36332;51.384;0.040;2023-03-14T00:17:42;51.33;;;6.68;;
27706;SDS011;36332;51.384;0.040;2023-03-14T00:20:11;55.00;;;8.45;;
27706;SDS011;36332;51.384;0.040;2023-03-14T00:22:39;56.20;;;7.63;;
27706;SDS011;36332;51.384;0.040;2023-03-14T00:25:08;40.22;;;6.38;;
27706;SDS011;36332;51.384;0.040;2023-03-14T00:27:37;36.30;;;4.88;;
27706;SDS011;36332;51.384;0.040;2023-03-14T00:30:05;35.22;;;5.53;;
27706;SDS011;36332;51.384;0.040;2023-03-14T00:32:35;41.30;;;5.65;;
27706;SDS011;36332;51.384;0.040;2023-03-14T00:35:03;36.22;;;4.85;;
27706;SDS011;36332;51.384;0.040;2023-03-14T00:37:31;27.85;;;4.45;;
27706;SDS011;36332;51.384;0.040;2023-03-14T00:39:59;32.00;;;3.97;;
27706;SDS011;36332;51.384;0.040;2023-03-14T00:42:27;27.73;;;3.95;;
27706;SDS011;36332;51.384;0.040;2023-03-14T00:44:54;18.02;;;3.40;;
27706;SDS011;36332;51.384;0.040;2023-03-14T00:47:22;14.75;;;2.33;;
27706;SDS011;36332;51.384;0.040;2023-03-14T00:49:50;16.65;;;2.90;;
27706;SDS011;36332;51.384;0.040;2023-03-14T00:52:18;15.55;;;3.78;;
27706;SDS011;36332;51.384;0.040;2023-03-14T00:54:46;13.15;;;3.03;;
27706;SDS011;36332;51.384;0.040;2023-03-14T00:57:14;13.60;;;2.55;;
27706;SDS011;36332;51.384;0.040;2023-03-14T00:59:41;18.48;;;2.90;;
27706;SDS011;36332;51.384;0.040;2023-03-14T01:02:09;15.50;;;2.40;;
27706;SDS011;36332;51.384;0.040;2023-03-14T01:04:37;13.27;;;2.72;;
27706;SDS011;36332;51.384;0.040;2023-03-14T01:07:06;19.23;;;2.47;;
27706;SDS011;36332;51.384;0.040;2023-03-14T01:09:34;12.07;;;2.20;;
27706;SDS011;36332;51.384;0.040;2023-03-14T01:12:02;17.00;;;2.42;;
27706;SDS011;36332;51.384;0.040;2023-03-14T01:14:30;13.13;;;2.78;;
27706;SDS011;36332;51.384;0.040;2023-03-14T01:16:57;17.25;;;2.30;;
27706;SDS011;36332;51.384;0.040;2023-03-14T01:19:27;7.55;;;1.60;;
27706;SDS011;36332;51.384;0.040;2023-03-14T01:21:55;8.52;;;2.25;;
27706;SDS011;36332;51.384;0.040;2023-03-14T01:24:23;7.38;;;2.42;;
27706;SDS011;36332;51.384;0.040;2023-03-14T01:26:51;8.13;;;1.48;;
27706;SDS011;36332;51.384;0.040;2023-03-14T01:29:18;9.00;;;1.50;;
27706;SDS011;36332;51.384;0.040;2023-03-14T01:31:46;8.40;;;1.50;;
27706;SDS011;36332;51.384;0.040;2023-03-14T01:34:14;7.18;;;2.25;;
27706;SDS011;36332;51.384;0.040;2023-03-14T01:36:42;7.30;;;1.10;;
27706;SDS011;36332;51.384;0.040;2023-03-14T01:39:10;7.75;;;1.30;;
27706;SDS011;36332;51.384;0.040;2023-03-14T01:41:37;5.78;;;1.17;;
27706;SDS011;36332;51.384;0.040;2023-03-14T01:44:08;5.05;;;1.42;;
27706;SDS011;36332;51.384;0.040;2023-03-14T01:46:43;2.35;;;1.25;;
27706;SDS011;36332;51.384;0.040;2023-03-14T01:54:58;2.42;;;1.52;;
27706;SDS011;36332;51.384;0.040;2023-03-14T01:57:35;1.45;;;1.30;;
27706;SDS011;36332;51.384;0.040;2023-03-14T02:00:07;2.80;;;1.43;;
27706;SDS011;36332;51.384;0.040;2023-03-14T02:02:47;3.70;;;1.45;;
27706;SDS011;36332;51.384;0.040;2023-03-14T02:05:31;1.50;;;1.40;;
27706;SDS011;36332;51.384;0.040;2023-03-14T02:08:16;3.50;;;1.50;;
27706;SDS011;36332;51.384;0.040;2023-03-14T02:10:50;1.80;;;1.70;;
27706;SDS011;36332;51.384;0.040;2023-03-14T02:13:36;2.20;;;1.67;;
27706;SDS011;36332;51.384;0.040;2023-03-14T02:16:16;2.33;;;1.10;;
27706;SDS011;36332;51.384;0.040;2023-03-14T02:18:59;8.25;;;1.83;;
27706;SDS011;36332;51.384;0.040;2023-03-14T02:21:47;3.78;;;1.67;;
27706;SDS011;36332;51.384;0.040;2023-03-14T02:24:50;3.90;;;1.42;;
27706;SDS011;36332;51.384;0.040;2023-03-14T02:27:39;2.80;;;1.48;;
27706;SDS011;36332;51.384;0.040;2023-03-14T02:32:45;5.25;;;1.35;;
27706;SDS011;36332;51.384;0.040;2023-03-14T02:35:18;2.13;;;1.83;;
27706;SDS011;36332;51.384;0.040;2023-03-14T02:37:55;2.55;;;1.30;;
27706;SDS011;36332;51.384;0.040;2023-03-14T02:40:34;6.00;;;1.67;;
27706;SDS011;36332;51.384;0.040;2023-03-14T02:43:02;3.22;;;1.67;;
27706;SDS011;36332;51.384;0.040;2023-03-14T02:45:33;2.67;;;1.30;;
27706;SDS011;36332;51.384;0.040;2023-03-14T02:48:07;2.63;;;1.40;;
27706;SDS011;36332;51.384;0.040;2023-03-14T02:50:40;4.03;;;1.40;;
27706;SDS011;36332;51.384;0.040;2023-03-14T02:53:09;11.82;;;2.08;;
27706;SDS011;36332;51.384;0.040;2023-03-14T02:55:38;2.83;;;1.90;;
27706;SDS011;36332;51.384;0.040;2023-03-14T02:58:11;4.82;;;2.72;;
27706;SDS011;36332;51.384;0.040;2023-03-14T03:00:39;4.15;;;1.48;;
27706;SDS011;36332;51.384;0.040;2023-03-14T03:03:08;2.90;;;1.63;;
27706;SDS011;36332;51.384;0.040;2023-03-14T03:05:36;9.43;;;2.05;;
27706;SDS011;36332;51.384;0.040;2023-03-14T03:08:05;3.80;;;1.00;;
27706;SDS011;36332;51.384;0.040;2023-03-14T03:10:33;5.40;;;1.40;;
27706;SDS011;36332;51.384;0.040;2023-03-14T03:13:01;2.90;;;1.00;;
27706;SDS011;36332;51.384;0.040;2023-03-14T03:15:29;1.42;;;0.93;;
27706;SDS011;36332;51.384;0.040;2023-03-14T03:17:57;5.15;;;1.15;;
27706;SDS011;36332;51.384;0.040;2023-03-14T03:20:25;3.42;;;2.58;;
27706;SDS011;36332;51.384;0.040;2023-03-14T03:22:53;4.05;;;2.00;;
27706;SDS011;36332;51.384;0.040;2023-03-14T03:25:20;7.65;;;1.35;;
27706;SDS011;36332;51.384;0.040;2023-03-14T03:27:49;5.90;;;1.20;;
27706;SDS011;36332;51.384;0.040;2023-03-14T03:30:18;4.28;;;1.30;;
27706;SDS011;36332;51.384;0.040;2023-03-14T03:32:47;5.07;;;1.08;;
27706;SDS011;36332;51.384;0.040;2023-03-14T03:35:14;3.60;;;1.10;;
27706;SDS011;36332;51.384;0.040;2023-03-14T03:37:42;2.83;;;0.98;;
27706;SDS011;36332;51.384;0.040;2023-03-14T03:40:10;4.25;;;1.40;;
27706;SDS011;36332;51.384;0.040;2023-03-14T03:42:38;1.95;;;0.90;;
27706;SDS011;36332;51.384;0.040;2023-03-14T03:45:08;3.33;;;0.90;;
27706;SDS011;36332;51.384;0.040;2023-03-14T03:47:42;5.72;;;1.00;;
27706;SDS011;36332;51.384;0.040;2023-03-14T03:50:11;6.60;;;1.45;;
27706;SDS011;36332;51.384;0.040;2023-03-14T03:52:38;5.00;;;1.20;;
27706;SDS011;36332;51.384;0.040;2023-03-14T03:55:06;2.75;;;1.00;;
27706;SDS011;36332;51.384;0.040;2023-03-14T03:57:34;7.75;;;1.83;;
27706;SDS011;36332;51.384;0.040;2023-03-14T04:00:03;1.27;;;0.95;;
27706;SDS011;36332;51.384;0.040;2023-03-14T04:02:40;2.20;;;1.10;;
27706;SDS011;36332;51.384;0.040;2023-03-14T04:05:11;7.25;;;1.77;;
27706;SDS011;36332;51.384;0.040;2023-03-14T04:07:45;4.95;;;1.38;;
27706;SDS011;36332;51.384;0.040;2023-03-14T04:10:17;5.93;;;1.40;;
27706;SDS011;36332;51.384;0.040;2023-03-14T04:13:01;2.50;;;1.05;;
27706;SDS011;36332;51.384;0.040;2023-03-14T04:15:32;5.45;;;1.30;;
27706;SDS011;36332;51.384;0.040;2023-03-14T04:18:04;9.15;;;1.90;;
27706;SDS011;36332;51.384;0.040;2023-03-14T04:20:34;5.60;;;2.13;;
27706;SDS011;36332;51.384;0.040;2023-03-14T04:23:03;2.75;;;1.02;;
27706;SDS011;36332;51.384;0.040;2023-03-14T04:25:30;8.57;;;1.20;;
27706;SDS011;36332;51.384;0.040;2023-03-14T04:28:02;5.55;;;1.42;;
27706;SDS011;36332;51.384;0.040;2023-03-14T04:30:31;12.25;;;1.67;;
27706;SDS011;36332;51.384;0.040;2023-03-14T04:33:05;6.75;;;1.27;;
27706;SDS011;36332;51.384;0.040;2023-03-14T04:35:38;4.15;;;1.90;;
27706;SDS011;36332;51.384;0.040;2023-03-14T04:38:09;2.20;;;0.98;;
27706;SDS011;36332;51.384;0.040;2023-03-14T04:40:38;7.95;;;1.50;;
27706;SDS011;36332;51.384;0.040;2023-03-14T04:43:07;3.95;;;1.20;;
27706;SDS011;36332;51.384;0.040;2023-03-14T04:45:41;7.57;;;1.20;;
27706;SDS011;36332;51.384;0.040;2023-03-14T04:48:10;8.98;;;1.25;;
27706;SDS011;36332;51.384;0.040;2023-03-14T04:50:38;5.22;;;1.55;;
27706;SDS011;36332;51.384;0.040;2023-03-14T04:53:06;8.20;;;1.60;;
27706;SDS011;36332;51.384;0.040;2023-03-14T04:55:34;7.70;;;1.20;;
27706;SDS011;36332;51.384;0.040;2023-03-14T04:58:02;5.13;;;1.50;;
27706;SDS011;36332;51.384;0.040;2023-03-14T05:00:30;5.53;;;1.42;;
27706;SDS011;36332;51.384;0.040;2023-03-14T05:03:20;5.13;;;1.45;;
27706;SDS011;36332;51.384;0.040;2023-03-14T05:06:08;6.03;;;2.13;;
27706;SDS011;36332;51.384;0.040;2023-03-14T05:09:00;9.05;;;1.38;;
27706;SDS011;36332;51.384;0.040;2023-03-14T05:11:44;10.05;;;1.73;;
27706;SDS011;36332;51.384;0.040;2023-03-14T05:14:35;9.57;;;1.40;;
27706;SDS011;36332;51.384;0.040;2023-03-14T05:17:11;11.73;;;1.90;;
27706;SDS011;36332;51.384;0.040;2023-03-14T05:20:03;15.27;;;1.92;;
27706;SDS011;36332;51.384;0.040;2023-03-14T05:22:54;14.75;;;1.83;;
27706;SDS011;36332;51.384;0.040;2023-03-14T05:25:42;5.82;;;1.58;;
27706;SDS011;36332;51.384;0.040;2023-03-14T05:28:29;8.43;;;1.63;;
27706;SDS011;36332;51.384;0.040;2023-03-14T05:31:29;6.10;;;1.77;;
27706;SDS011;36332;51.384;0.040;2023-03-14T05:34:08;9.02;;;1.77;;
27706;SDS011;36332;51.384;0.040;2023-03-14T05:36:48;11.15;;;2.97;;
27706;SDS011;36332;51.384;0.040;2023-03-14T05:39:24;9.38;;;1.88;;
27706;SDS011;36332;51.384;0.040;2023-03-14T05:42:23;13.15;;;2.13;;
27706;SDS011;36332;51.384;0.040;2023-03-14T05:45:07;21.20;;;3.95;;
27706;SDS011;36332;51.384;0.040;2023-03-14T05:47:48;7.40;;;1.83;;
27706;SDS011;36332;51.384;0.040;2023-03-14T05:50:42;8.63;;;1.92;;
27706;SDS011;36332;51.384;0.040;2023-03-14T05:53:24;8.68;;;1.83;;
27706;SDS011;36332;51.384;0.040;2023-03-14T05:56:13;4.70;;;1.50;;
27706;SDS011;36332;51.384;0.040;2023-03-14T05:58:54;12.63;;;1.92;;
27706;SDS011;36332;51.384;0.040;2023-03-14T06:01:33;13.10;;;2.05;;
27706;SDS011;36332;51.384;0.040;2023-03-14T06:04:10;19.90;;;1.88;;
27706;SDS011;36332;51.384;0.040;2023-03-14T06:06:38;7.85;;;2.38;;
27706;SDS011;36332;51.384;0.040;2023-03-14T06:09:07;12.50;;;1.65;;
27706;SDS011;36332;51.384;0.040;2023-03-14T06:11:38;10.25;;;2.17;;
27706;SDS011;36332;51.384;0.040;2023-03-14T06:14:07;13.48;;;1.60;;
27706;SDS011;36332;51.384;0.040;2023-03-14T06:16:35;11.30;;;2.33;;
27706;SDS011;36332;51.384;0.040;2023-03-14T06:19:03;15.73;;;2.80;;
27706;SDS011;36332;51.384;0.040;2023-03-14T06:21:32;14.48;;;1.92;;
27706;SDS011;36332;51.384;0.040;2023-03-14T06:24:00;11.77;;;3.13;;
27706;SDS011;36332;51.384;0.040;2023-03-14T06:26:30;10.18;;;1.67;;
27706;SDS011;36332;51.384;0.040;2023-03-14T06:28:58;10.18;;;1.90;;
27706;SDS011;36332;51.384;0.040;2023-03-14T06:31:32;9.13;;;1.23;;
27706;SDS011;36332;51.384;0.040;2023-03-14T06:34:03;19.48;;;2.42;;
27706;SDS011;36332;51.384;0.040;2023-03-14T06:36:31;12.05;;;2.80;;
27706;SDS011;36332;51.384;0.040;2023-03-14T06:38:58;6.53;;;1.52;;
27706;SDS011;36332;51.384;0.040;2023-03-14T06:41:28;9.15;;;1.90;;
27706;SDS011;36332;51.384;0.040;2023-03-14T06:43:57;13.10;;;2.05;;
27706;SDS011;36332;51.384;0.040;2023-03-14T06:46:26;11.98;;;1.98;;
27706;SDS011;36332;51.384;0.040;2023-03-14T06:48:54;10.80;;;1.73;;
27706;SDS011;36332;51.384;0.040;2023-03-14T06:51:21;11.77;;;1.98;;
27706;SDS011;36332;51.384;0.040;2023-03-14T06:53:49;9.20;;;1.58;;
27706;SDS011;36332;51.384;0.040;2023-03-14T06:56:20;7.70;;;2.30;;
27706;SDS011;36332;51.384;0.040;2023-03-14T06:58:48;9.95;;;1.83;;
27706;SDS011;36332;51.384;0.040;2023-03-14T07:01:23;6.95;;;1.73;;
27706;SDS011;36332;51.384;0.040;2023-03-14T07:03:54;12.63;;;1.63;;
27706;SDS011;36332;51.384;0.040;2023-03-14T07:06:22;24.67;;;2.47;;
27706;SDS011;36332;51.384;0.040;2023-03-14T07:08:50;8.80;;;1.80;;
27706;SDS011;36332;51.384;0.040;2023-03-14T07:11:18;12.52;;;1.77;;
27706;SDS011;36332;51.384;0.040;2023-03-14T07:13:46;9.40;;;2.60;;
27706;SDS011;36332;51.384;0.040;2023-03-14T07:16:14;4.53;;;1.55;;
27706;SDS011;36332;51.384;0.040;2023-03-14T07:18:42;11.00;;;2.05;;
27706;SDS011;36332;51.384;0.040;2023-03-14T07:21:10;9.68;;;1.77;;
27706;SDS011;36332;51.384;0.040;2023-03-14T07:23:37;14.63;;;2.22;;
27706;SDS011;36332;51.384;0.040;2023-03-14T07:26:06;8.55;;;2.22;;
27706;SDS011;36332;51.384;0.040;2023-03-14T07:28:37;5.05;;;1.80;;
27706;SDS011;36332;51.384;0.040;2023-03-14T07:31:10;7.75;;;2.22;;
27706;SDS011;36332;51.384;0.040;2023-03-14T07:33:39;11.23;;;2.50;;
27706;SDS011;36332;51.384;0.040;2023-03-14T07:36:07;12.25;;;2.38;;
27706;SDS011;36332;51.384;0.040;2023-03-14T07:38:34;12.93;;;2.17;;
27706;SDS011;36332;51.384;0.040;2023-03-14T07:41:28;7.50;;;1.63;;
27706;SDS011;36332;51.384;0.040;2023-03-14T07:44:14;9.90;;;2.05;;
27706;SDS011;36332;51.384;0.040;2023-03-14T07:46:42;17.10;;;2.67;;
27706;SDS011;36332;51.384;0.040;2023-03-14T07:49:10;11.10;;;1.60;;
27706;SDS011;36332;51.384;0.040;2023-03-14T07:51:37;6.75;;;1.90;;
27706;SDS011;36332;51.384;0.040;2023-03-14T07:54:04;11.25;;;1.80;;
27706;SDS011;36332;51.384;0.040;2023-03-14T07:56:32;8.60;;;2.90;;
27706;SDS011;36332;51.384;0.040;2023-03-14T07:58:59;11.15;;;1.83;;
27706;SDS011;36332;51.384;0.040;2023-03-14T08:01:27;7.25;;;1.40;;
27706;SDS011;36332;51.384;0.040;2023-03-14T08:03:55;6.32;;;1.92;;
27706;SDS011;36332;51.384;0.040;2023-03-14T08:06:23;7.78;;;1.95;;
27706;SDS011;36332;51.384;0.040;2023-03-14T08:08:50;12.52;;;2.10;;
27706;SDS011;36332;51.384;0.040;2023-03-14T08:11:18;6.47;;;1.75;;
27706;SDS011;36332;51.384;0.040;2023-03-14T08:13:45;10.98;;;2.15;;
27706;SDS011;36332;51.384;0.040;2023-03-14T08:16:16;11.63;;;2.35;;
27706;SDS011;36332;51.384;0.040;2023-03-14T08:18:44;6.03;;;1.95;;
27706;SDS011;36332;51.384;0.040;2023-03-14T08:21:12;8.57;;;2.08;;
27706;SDS011;36332;51.384;0.040;2023-03-14T08:23:40;6.80;;;1.80;;
27706;SDS011;36332;51.384;0.040;2023-03-14T08:26:08;8.93;;;1.48;;
27706;SDS011;36332;51.384;0.040;2023-03-14T08:28:35;6.72;;;1.67;;
27706;SDS011;36332;51.384;0.040;2023-03-14T08:31:03;5.10;;;1.58;;
27706;SDS011;36332;51.384;0.040;2023-03-14T08:33:31;6.18;;;1.55;;
27706;SDS011;36332;51.384;0.040;2023-03-14T08:35:59;4.78;;;1.75;;
27706;SDS011;36332;51.384;0.040;2023-03-14T08:38:28;2.33;;;1.40;;
27706;SDS011;36332;51.384;0.040;2023-03-14T08:40:56;5.00;;;1.65;;
27706;SDS011;36332;51.384;0.040;2023-03-14T08:43:29;5.88;;;1.95;;
27706;SDS011;36332;51.384;0.040;2023-03-14T08:45:57;3.40;;;1.33;;
27706;SDS011;36332;51.384;0.040;2023-03-14T08:48:26;4.35;;;2.03;;
27706;SDS011;36332;51.384;0.040;2023-03-14T08:50:55;2.63;;;1.77;;
27706;SDS011;36332;51.384;0.040;2023-03-14T08:53:37;4.38;;;2.15;;
27706;SDS011;36332;51.384;0.040;2023-03-14T08:56:05;2.83;;;1.65;;
27706;SDS011;36332;51.384;0.040;2023-03-14T08:58:33;5.72;;;2.42;;
27706;SDS011;36332;51.384;0.040;2023-03-14T09:01:02;2.55;;;1.60;;
27706;SDS011;36332;51.384;0.040;2023-03-14T09:03:30;5.82;;;2.28;;
27706;SDS011;36332;51.384;0.040;2023-03-14T09:06:01;1.63;;;1.50;;
27706;SDS011;36332;51.384;0.040;2023-03-14T09:08:30;5.80;;;1.70;;
27706;SDS011;36332;51.384;0.040;2023-03-14T09:10:59;2.80;;;1.52;;
27706;SDS011;36332;51.384;0.040;2023-03-14T09:13:27;1.92;;;1.50;;
27706;SDS011;36332;51.384;0.040;2023-03-14T09:15:56;4.43;;;1.15;;
27706;SDS011;36332;51.384;0.040;2023-03-14T09:18:24;2.13;;;1.45;;
27706;SDS011;36332;51.384;0.040;2023-03-14T09:20:52;1.23;;;1.00;;
27706;SDS011;36332;51.384;0.040;2023-03-14T09:23:19;2.03;;;1.00;;
27706;SDS011;36332;51.384;0.040;2023-03-14T09:25:47;1.02;;;1.00;;
27706;SDS011;36332;51.384;0.040;2023-03-14T09:28:14;1.05;;;0.95;;
27706;SDS011;36332;51.384;0.040;2023-03-14T09:30:42;1.42;;;1.05;;
27706;SDS011;36332;51.384;0.040;2023-03-14T09:33:10;2.60;;;1.10;;
27706;SDS011;36332;51.384;0.040;2023-03-14T09:35:38;2.05;;;1.10;;
27706;SDS011;36332;51.384;0.040;2023-03-14T09:38:05;3.42;;;1.25;;
27706;SDS011;36332;51.384;0.040;2023-03-14T09:40:36;2.35;;;1.48;;
27706;SDS011;36332;51.384;0.040;2023-03-14T09:43:05;3.78;;;1.30;;
27706;SDS011;36332;51.384;0.040;2023-03-14T09:45:35;2.00;;;1.30;;
27706;SDS011;36332;51.384;0.040;2023-03-14T09:48:08;8.00;;;1.42;;
27706;SDS011;36332;51.384;0.040;2023-03-14T09:53:18;2.20;;;1.65;;
27706;SDS011;36332;51.384;0.040;2023-03-14T09:55:49;6.25;;;1.80;;
27706;SDS011;36332;51.384;0.040;2023-03-14T09:58:20;5.47;;;1.95;;
27706;SDS011;36332;51.384;0.040;2023-03-14T10:00:49;4.35;;;1.98;;
27706;SDS011;36332;51.384;0.040;2023-03-14T10:03:26;7.13;;;2.20;;
27706;SDS011;36332;51.384;0.040;2023-03-14T10:05:59;8.57;;;2.70;;
27706;SDS011;36332;51.384;0.040;2023-03-14T10:08:27;10.77;;;3.97;;
27706;SDS011;36332;51.384;0.040;2023-03-14T10:10:56;15.88;;;3.22;;
27706;SDS011;36332;51.384;0.040;2023-03-14T10:13:25;4.97;;;2.47;;
27706;SDS011;36332;51.384;0.040;2023-03-14T10:15:55;10.50;;;3.20;;
27706;SDS011;36332;51.384;0.040;2023-03-14T10:18:28;5.03;;;2.63;;
27706;SDS011;36332;51.384;0.040;2023-03-14T10:21:04;9.18;;;3.58;;
27706;SDS011;36332;51.384;0.040;2023-03-14T10:23:34;7.18;;;3.20;;
27706;SDS011;36332;51.384;0.040;2023-03-14T10:26:12;18.23;;;3.75;;
27706;SDS011;36332;51.384;0.040;2023-03-14T10:28:46;12.55;;;3.53;;
27706;SDS011;36332;51.384;0.040;2023-03-14T10:31:18;11.45;;;3.25;;
27706;SDS011;36332;51.384;0.040;2023-03-14T10:33:59;6.68;;;3.42;;
27706;SDS011;36332;51.384;0.040;2023-03-14T10:36:28;12.75;;;3.35;;
27706;SDS011;36332;51.384;0.040;2023-03-14T10:39:15;16.27;;;3.40;;
27706;SDS011;36332;51.384;0.040;2023-03-14T10:41:53;14.05;;;3.42;;
27706;SDS011;36332;51.384;0.040;2023-03-14T10:44:24;11.15;;;3.05;;
27706;SDS011;36332;51.384;0.040;2023-03-14T10:47:00;9.10;;;2.40;;
27706;SDS011;36332;51.384;0.040;2023-03-14T10:49:32;9.52;;;2.67;;
27706;SDS011;36332;51.384;0.040;2023-03-14T10:52:48;17.42;;;3.90;;
27706;SDS011;36332;51.384;0.040;2023-03-14T10:55:11;10.13;;;2.28;;
27706;SDS011;36332;51.384;0.040;2023-03-14T10:57:40;14.63;;;2.80;;
27706;SDS011;36332;51.384;0.040;2023-03-14T11:00:15;11.05;;;2.30;;
27706;SDS011;36332;51.384;0.040;2023-03-14T11:02:55;12.48;;;2.40;;
27706;SDS011;36332;51.384;0.040;2023-03-14T11:05:56;7.70;;;1.80;;
27706;SDS011;36332;51.384;0.040;2023-03-14T11:11:06;5.60;;;1.90;;
27706;SDS011;36332;51.384;0.040;2023-03-14T11:13:54;7.72;;;2.20;;
27706;SDS011;36332;51.384;0.040;2023-03-14T11:16:44;9.43;;;1.75;;
27706;SDS011;36332;51.384;0.040;2023-03-14T11:19:24;6.85;;;2.05;;
27706;SDS011;36332;51.384;0.040;2023-03-14T11:36:03;12.60;;;2.35;;
27706;SDS011;36332;51.384;0.040;2023-03-14T11:41:16;9.00;;;2.00;;
27706;SDS011;36332;51.384;0.040;2023-03-14T11:43:59;11.13;;;3.45;;
27706;SDS011;36332;51.384;0.040;2023-03-14T11:51:47;10.63;;;2.30;;
27706;SDS011;36332;51.384;0.040;2023-03-14T11:57:18;14.55;;;3.65;;
27706;SDS011;36332;51.384;0.040;2023-03-14T12:16:46;15.13;;;2.73;;
27706;SDS011;36332;51.384;0.040;2023-03-14T12:21:57;10.63;;;2.15;;
27706;SDS011;36332;51.384;0.040;2023-03-14T12:24:47;15.10;;;2.30;;
27706;SDS011;36332;51.384;0.040;2023-03-14T12:30:24;9.68;;;2.30;;
27706;SDS011;36332;51.384;0.040;2023-03-14T12:35:41;13.68;;;2.30;;
27706;SDS011;36332;51.384;0.040;2023-03-14T12:43:41;13.63;;;2.83;;
27706;SDS011;36332;51.384;0.040;2023-03-14T12:51:20;9.07;;;2.30;;
27706;SDS011;36332;51.384;0.040;2023-03-14T12:54:06;7.88;;;2.13;;
27706;SDS011;36332;51.384;0.040;2023-03-14T13:01:59;11.15;;;2.65;;
27706;SDS011;36332;51.384;0.040;2023-03-14T13:04:32;6.80;;;2.00;;
27706;SDS011;36332;51.384;0.040;2023-03-14T13:07:10;9.13;;;2.05;;
27706;SDS011;36332;51.384;0.040;2023-03-14T13:15:25;15.02;;;2.58;;
27706;SDS011;36332;51.384;0.040;2023-03-14T13:17:54;9.10;;;1.65;;
27706;SDS011;36332;51.384;0.040;2023-03-14T13:20:29;8.90;;;1.92;;
27706;SDS011;36332;51.384;0.040;2023-03-14T13:23:02;10.93;;;2.45;;
27706;SDS011;36332;51.384;0.040;2023-03-14T13:25:33;7.85;;;1.85;;
27706;SDS011;36332;51.384;0.040;2023-03-14T13:28:02;8.57;;;1.88;;
27706;SDS011;36332;51.384;0.040;2023-03-14T13:30:41;8.75;;;1.60;;
27706;SDS011;36332;51.384;0.040;2023-03-14T13:33:12;9.23;;;1.58;;
27706;SDS011;36332;51.384;0.040;2023-03-14T13:35:45;6.00;;;1.52;;
27706;SDS011;36332;51.384;0.040;2023-03-14T13:38:20;7.65;;;1.50;;
27706;SDS011;36332;51.384;0.040;2023-03-14T13:40:51;8.15;;;1.92;;
27706;SDS011;36332;51.384;0.040;2023-03-14T13:43:41;9.40;;;2.30;;
27706;SDS011;36332;51.384;0.040;2023-03-14T13:46:12;3.78;;;1.33;;
27706;SDS011;36332;51.384;0.040;2023-03-14T13:48:43;3.55;;;1.77;;
27706;SDS011;36332;51.384;0.040;2023-03-14T13:51:18;9.73;;;1.90;;
27706;SDS011;36332;51.384;0.040;2023-03-14T13:53:51;7.13;;;2.33;;
27706;SDS011;36332;51.384;0.040;2023-03-14T13:56:21;7.88;;;1.40;;
27706;SDS011;36332;51.384;0.040;2023-03-14T14:03:57;5.75;;;1.60;;
27706;SDS011;36332;51.384;0.040;2023-03-14T14:06:38;10.20;;;1.70;;
27706;SDS011;36332;51.384;0.040;2023-03-14T14:09:18;2.63;;;1.50;;
27706;SDS011;36332;51.384;0.040;2023-03-14T14:17:36;6.63;;;1.90;;
27706;SDS011;36332;51.384;0.040;2023-03-14T14:20:18;5.72;;;1.70;;
27706;SDS011;36332;51.384;0.040;2023-03-14T14:22:50;5.50;;;1.65;;
27706;SDS011;36332;51.384;0.040;2023-03-14T14:25:19;7.75;;;1.85;;
27706;SDS011;36332;51.384;0.040;2023-03-14T14:27:47;7.55;;;2.17;;
27706;SDS011;36332;51.384;0.040;2023-03-14T14:32:46;8.73;;;2.05;;
27706;SDS011;36332;51.384;0.040;2023-03-14T14:35:25;4.63;;;1.42;;
27706;SDS011;36332;51.384;0.040;2023-03-14T14:37:58;6.00;;;1.40;;
27706;SDS011;36332;51.384;0.040;2023-03-14T14:40:27;6.57;;;2.15;;
27706;SDS011;36332;51.384;0.040;2023-03-14T14:43:03;4.45;;;1.30;;
27706;SDS011;36332;51.384;0.040;2023-03-14T14:45:33;5.03;;;1.70;;
27706;SDS011;36332;51.384;0.040;2023-03-14T14:50:37;5.68;;;1.65;;
27706;SDS011;36332;51.384;0.040;2023-03-14T14:55:58;3.38;;;1.45;;
27706;SDS011;36332;51.384;0.040;2023-03-14T14:58:35;5.75;;;1.67;;
27706;SDS011;36332;51.384;0.040;2023-03-14T15:01:17;4.10;;;1.60;;
27706;SDS011;36332;51.384;0.040;2023-03-14T15:03:53;5.63;;;1.88;;
27706;SDS011;36332;51.384;0.040;2023-03-14T15:06:21;4.90;;;1.58;;
27706;SDS011;36332;51.384;0.040;2023-03-14T15:08:52;5.70;;;1.65;;
27706;SDS011;36332;51.384;0.040;2023-03-14T15:11:21;6.18;;;1.75;;
27706;SDS011;36332;51.384;0.040;2023-03-14T15:13:51;11.52;;;1.67;;
27706;SDS011;36332;51.384;0.040;2023-03-14T15:16:20;6.82;;;1.70;;
27706;SDS011;36332;51.384;0.040;2023-03-14T15:18:52;5.55;;;1.42;;
27706;SDS011;36332;51.384;0.040;2023-03-14T15:21:24;8.55;;;1.92;;
27706;SDS011;36332;51.384;0.040;2023-03-14T15:23:53;5.88;;;1.55;;
27706;SDS011;36332;51.384;0.040;2023-03-14T15:26:22;5.40;;;1.35;;
27706;SDS011;36332;51.384;0.040;2023-03-14T15:28:52;7.70;;;2.08;;
27706;SDS011;36332;51.384;0.040;2023-03-14T15:31:20;5.95;;;1.40;;
27706;SDS011;36332;51.384;0.040;2023-03-14T15:33:49;6.00;;;1.60;;
27706;SDS011;36332;51.384;0.040;2023-03-14T15:38:53;4.65;;;1.10;;
27706;SDS011;36332;51.384;0.040;2023-03-14T15:41:22;4.32;;;1.52;;
27706;SDS011;36332;51.384;0.040;2023-03-14T15:43:50;4.22;;;1.50;;
27706;SDS011;36332;51.384;0.040;2023-03-14T15:46:18;5.03;;;1.42;;
27706;SDS011;36332;51.384;0.040;2023-03-14T15:48:47;3.13;;;1.17;;
27706;SDS011;36332;51.384;0.040;2023-03-14T15:51:17;5.57;;;1.63;;
27706;SDS011;36332;51.384;0.040;2023-03-14T15:53:46;5.55;;;1.90;;
27706;SDS011;36332;51.384;0.040;2023-03-14T15:56:15;5.85;;;1.33;;
27706;SDS011;36332;51.384;0.040;2023-03-14T15:58:44;6.07;;;1.70;;
27706;SDS011;36332;51.384;0.040;2023-03-14T16:01:13;9.88;;;1.92;;
27706;SDS011;36332;51.384;0.040;2023-03-14T16:03:45;7.07;;;1.75;;
27706;SDS011;36332;51.384;0.040;2023-03-14T16:06:14;4.15;;;1.40;;
27706;SDS011;36332;51.384;0.040;2023-03-14T16:08:42;4.05;;;1.50;;
27706;SDS011;36332;51.384;0.040;2023-03-14T16:11:11;6.88;;;1.75;;
27706;SDS011;36332;51.384;0.040;2023-03-14T16:13:39;6.85;;;1.90;;
27706;SDS011;36332;51.384;0.040;2023-03-14T16:16:08;3.92;;;1.65;;
27706;SDS011;36332;51.384;0.040;2023-03-14T16:18:36;5.65;;;1.58;;
27706;SDS011;36332;51.384;0.040;2023-03-14T16:21:06;3.70;;;1.30;;
27706;SDS011;36332;51.384;0.040;2023-03-14T16:23:37;5.40;;;1.42;;
27706;SDS011;36332;51.384;0.040;2023-03-14T16:26:06;6.28;;;1.55;;
27706;SDS011;36332;51.384;0.040;2023-03-14T16:28:36;8.25;;;1.73;;
27706;SDS011;36332;51.384;0.040;2023-03-14T16:31:05;4.25;;;1.30;;
27706;SDS011;36332;51.384;0.040;2023-03-14T16:33:35;4.50;;;1.40;;
27706;SDS011;36332;51.384;0.040;2023-03-14T16:36:05;6.35;;;1.63;;
27706;SDS011;36332;51.384;0.040;2023-03-14T16:38:38;5.22;;;1.58;;
27706;SDS011;36332;51.384;0.040;2023-03-14T16:43:39;4.25;;;1.73;;
27706;SDS011;36332;51.384;0.040;2023-03-14T16:46:10;5.60;;;1.60;;
27706;SDS011;36332;51.384;0.040;2023-03-14T16:48:41;5.93;;;2.00;;
27706;SDS011;36332;51.384;0.040;2023-03-14T16:51:09;5.40;;;1.40;;
27706;SDS011;36332;51.384;0.040;2023-03-14T16:53:37;5.50;;;1.73;;
27706;SDS011;36332;51.384;0.040;2023-03-14T16:56:05;4.55;;;1.58;;
27706;SDS011;36332;51.384;0.040;2023-03-14T16:58:34;8.02;;;2.05;;
27706;SDS011;36332;51.384;0.040;2023-03-14T17:01:03;6.38;;;1.88;;